createdAt,value
2017-08-30T06:39:55.643Z,980.5
2017-08-30T06:40:03.024Z,980.6
2017-08-30T06:41:02.500Z,980.6
2017-08-30T06:42:02.718Z,980.6
2017-08-30T06:43:02.762Z,980.5
2017-08-30T06:44:02.427Z,980.5
2017-08-30T06:45:02.856Z,980.6
2017-08-30T06:46:03.079Z,980.5
2017-08-30T06:47:02.980Z,980.6
2017-08-30T06:48:07.963Z,980.5
2017-08-30T06:49:02.998Z,980.6
2017-08-30T06:50:03.056Z,980.5
2017-08-30T06:51:03.100Z,980.6
2017-08-30T06:52:03.145Z,980.5
2017-08-30T06:53:03.001Z,980.6
2017-08-30T06:54:03.256Z,980.5
2017-08-30T06:55:03.798Z,980.6
2017-08-30T06:56:02.654Z,980.6
2017-08-30T06:57:02.320Z,980.6
2017-08-30T06:58:02.558Z,980.5
2017-08-30T06:59:02.400Z,980.6
2017-08-30T07:00:08.907Z,980.6
2017-08-30T07:01:02.725Z,980.5
2017-08-30T07:02:02.969Z,980.6
2017-08-30T07:03:03.038Z,980.6
2017-08-30T07:04:02.270Z,980.6
2017-08-30T07:05:03.124Z,980.6
2017-08-30T07:06:03.479Z,980.6
2017-08-30T07:07:02.716Z,980.6
2017-08-30T07:08:02.766Z,980.6
2017-08-30T07:09:02.810Z,980.6
2017-08-30T07:10:02.856Z,980.6
2017-08-30T07:11:02.711Z,980.5
2017-08-30T07:12:02.382Z,980.6
2017-08-30T07:13:02.608Z,980.6
2017-08-30T07:14:02.680Z,980.6
2017-08-30T07:15:02.352Z,980.6
2017-08-30T07:16:02.580Z,980.6
2017-08-30T07:17:02.979Z,980.7
2017-08-30T07:18:02.653Z,980.7
2017-08-30T07:19:02.956Z,980.7
2017-08-30T07:20:03.304Z,980.7
2017-08-30T07:21:02.747Z,980.7
2017-08-30T07:22:02.790Z,980.7
2017-08-30T07:23:02.830Z,980.7
2017-08-30T07:24:02.884Z,980.7
2017-08-30T07:25:03.134Z,980.7
2017-08-30T07:26:02.585Z,980.7
2017-08-30T07:27:02.797Z,980.7
2017-08-30T07:28:02.701Z,980.7
2017-08-30T07:29:02.736Z,980.7
2017-08-30T07:30:02.808Z,980.7
2017-08-30T07:31:02.664Z,980.6
2017-08-30T07:32:02.697Z,980.6
2017-08-30T07:33:02.555Z,980.7
2017-08-30T07:34:02.905Z,980.7
2017-08-30T07:35:02.956Z,980.6
2017-08-30T07:36:03.018Z,980.6
2017-08-30T07:37:02.684Z,980.7
2017-08-30T07:38:02.916Z,980.7
2017-08-30T07:39:02.583Z,980.7
2017-08-30T07:40:02.835Z,980.7
2017-08-30T07:41:02.694Z,980.6
2017-08-30T07:42:02.957Z,980.7
2017-08-30T07:43:03.195Z,980.7
2017-08-30T07:44:03.550Z,980.7
2017-08-30T07:45:02.204Z,980.7
2017-08-30T07:46:02.496Z,980.7
2017-08-30T07:47:02.922Z,980.7
2017-08-30T07:48:03.152Z,980.8
2017-08-30T07:49:02.210Z,980.8
2017-08-30T07:50:02.925Z,980.8
2017-08-30T07:51:03.001Z,980.8
2017-08-30T07:52:03.098Z,980.7
2017-08-30T07:53:03.171Z,980.7
2017-08-30T07:54:02.842Z,980.7
2017-08-30T07:55:03.171Z,980.7
2017-08-30T07:56:02.409Z,980.7
2017-08-30T07:57:02.258Z,980.7
2017-08-30T07:58:02.312Z,980.7
2017-08-30T07:59:02.545Z,980.7
2017-08-30T08:00:02.588Z,980.7
2017-08-30T08:01:02.800Z,980.7
2017-08-30T08:02:02.662Z,980.7
2017-08-30T08:03:02.696Z,980.7
2017-08-30T08:04:02.579Z,980.6
2017-08-30T08:05:02.430Z,980.5
2017-08-30T08:06:03.661Z,980.5
2017-08-30T08:07:02.357Z,980.5
2017-08-30T08:08:02.614Z,980.6
2017-08-30T08:09:02.667Z,980.6
2017-08-30T08:10:02.701Z,980.6
2017-08-30T08:11:02.924Z,980.6
2017-08-30T08:12:02.970Z,980.6
2017-08-30T08:13:03.020Z,980.6
2017-08-30T08:14:03.051Z,980.6
2017-08-30T08:15:02.907Z,980.6
2017-08-30T08:16:02.945Z,980.5
2017-08-30T08:17:03.280Z,980.5
2017-08-30T08:18:03.335Z,980.5
2017-08-30T08:19:03.195Z,980.5
2017-08-30T08:20:03.245Z,980.5
2017-08-30T08:21:03.285Z,980.5
2017-08-30T08:22:03.129Z,980.5
2017-08-30T08:23:03.176Z,980.5
2017-08-30T08:24:03.202Z,980.5
2017-08-30T08:25:03.245Z,980.4
2017-08-30T08:26:03.096Z,980.5
2017-08-30T08:27:02.968Z,980.5
2017-08-30T08:28:03.231Z,980.4
2017-08-30T08:29:03.483Z,980.4
2017-08-30T08:30:02.528Z,980.4
2017-08-30T08:31:02.563Z,980.4
2017-08-30T08:32:03.622Z,980.4
2017-08-30T08:33:03.484Z,980.4
2017-08-30T08:34:03.139Z,980.4
2017-08-30T08:35:03.540Z,980.4
2017-08-30T08:36:02.996Z,980.4
2017-08-30T08:37:02.936Z,980.4
2017-08-30T08:38:03.476Z,980.5
2017-08-30T08:39:03.340Z,980.4
2017-08-30T08:40:03.213Z,980.4
2017-08-30T08:41:03.458Z,980.4
2017-08-30T08:42:03.495Z,980.4
2017-08-30T08:43:02.570Z,980.4
2017-08-30T08:44:02.251Z,980.4
2017-08-30T08:45:03.483Z,980.4
2017-08-30T08:46:03.134Z,980.4
2017-08-30T08:47:03.231Z,980.4
2017-08-30T08:48:03.284Z,980.5
2017-08-30T09:02:29.562Z,980.5
2017-08-30T09:09:42.347Z,980.4
2017-08-30T09:10:41.633Z,980.4
2017-08-30T09:11:41.866Z,980.4
2017-08-30T09:12:42.231Z,980.4
2017-08-30T09:13:41.455Z,980.3
2017-08-30T09:14:42.020Z,980.3
2017-08-30T09:15:42.113Z,980.3
2017-08-30T09:16:41.606Z,980.3
2017-08-30T09:17:41.662Z,980.3
2017-08-30T09:18:41.708Z,980.3
2017-08-30T09:19:41.992Z,980.3
2017-08-30T09:20:42.073Z,980
2017-08-30T09:21:41.522Z,980.3
2017-08-30T09:22:41.788Z,980.2
2017-08-30T09:23:57.080Z,980.1
2017-08-30T09:25:56.344Z,980.2
2017-08-30T09:26:56.431Z,980.2
2017-08-30T09:27:44.462Z,980.2
2017-08-30T09:28:56.324Z,980.2
2017-08-30T09:30:07.112Z,980.2
2017-08-30T09:30:57.975Z,980.2
2017-08-30T09:32:17.296Z,980.2
2017-08-30T09:33:11.553Z,980.1
2017-08-30T09:34:28.354Z,980.2
2017-08-30T09:36:35.230Z,980.1
2017-08-30T09:37:50.574Z,980
2017-08-30T09:39:59.068Z,980
2017-08-30T10:00:04.189Z,979.9
2017-08-30T10:13:24.461Z,979.8
2017-08-30T10:14:25.903Z,979.8
2017-08-30T10:15:25.114Z,979.8
2017-08-30T10:16:24.958Z,979.8
2017-08-30T10:17:24.831Z,979.8
2017-08-30T10:18:24.858Z,979.8
2017-08-30T10:19:24.706Z,979.8
2017-08-30T10:20:24.919Z,979.8
2017-08-30T10:21:25.130Z,979.8
2017-08-30T10:22:25.161Z,979.8
2017-08-30T10:23:25.194Z,979.7
2017-08-30T10:24:25.416Z,979.8
2017-08-30T10:25:25.259Z,979.7
2017-08-30T10:26:25.478Z,979.7
2017-08-30T10:27:24.710Z,979.7
2017-08-30T10:28:24.378Z,979.6
2017-08-30T10:29:25.709Z,979.6
2017-08-30T10:30:24.724Z,979.6
2017-08-30T10:31:24.767Z,979.6
2017-08-30T10:32:24.665Z,979.6
2017-08-30T10:33:24.703Z,979.6
2017-08-30T10:34:24.924Z,979.6
2017-08-30T10:35:25.140Z,979.6
2017-08-30T10:36:25.173Z,979.6
2017-08-30T10:37:25.031Z,979.6
2017-08-30T10:38:25.074Z,979.6
2017-08-30T10:39:24.917Z,979.5
2017-08-30T10:40:25.245Z,979.6
2017-08-30T10:41:25.661Z,979.5
2017-08-30T10:43:24.594Z,979.5
2017-08-30T10:44:25.024Z,979.5
2017-08-30T10:45:24.863Z,979.5
2017-08-30T10:46:24.747Z,979.5
2017-08-30T10:47:24.607Z,979.4
2017-08-30T10:48:25.651Z,979.5
2017-08-30T10:49:24.724Z,979.5
2017-08-30T10:50:25.917Z,979.4
2017-08-30T10:51:24.561Z,979.4
2017-08-30T10:52:25.224Z,979.3
2017-08-30T10:53:25.642Z,979.3
2017-08-30T10:54:24.509Z,979.4
2017-08-30T10:55:25.554Z,979.3
2017-08-30T10:56:24.698Z,979.3
2017-08-30T10:57:24.747Z,979.2
2017-08-30T10:58:24.978Z,979.2
2017-08-30T10:59:24.811Z,979.2
2017-08-30T11:00:24.872Z,979.2
2017-08-30T11:01:24.707Z,979.2
2017-08-30T11:02:02.801Z,979.2
2017-08-30T11:03:03.222Z,979.2
2017-08-30T11:04:03.259Z,979.2
2017-08-30T11:05:03.319Z,979.2
2017-08-30T11:06:02.549Z,979.2
2017-08-30T11:07:03.597Z,979.2
2017-08-30T11:08:02.638Z,979.2
2017-08-30T11:09:02.298Z,979.1
2017-08-30T11:10:03.336Z,979.1
2017-08-30T11:11:03.184Z,979.1
2017-08-30T11:12:03.533Z,979.1
2017-08-30T11:13:02.369Z,979
2017-08-30T11:14:03.209Z,979.1
2017-08-30T11:15:03.254Z,979.1
2017-08-30T11:16:03.293Z,979.1
2017-08-30T11:17:03.333Z,979.1
2017-08-30T11:18:03.188Z,979.1
2017-08-30T11:19:03.597Z,979.1
2017-08-30T11:20:02.641Z,979.2
2017-08-30T11:21:02.889Z,979.1
2017-08-30T11:22:02.733Z,979.1
2017-08-30T11:23:03.316Z,979.1
2017-08-30T11:24:03.558Z,979
2017-08-30T11:25:02.593Z,978.9
2017-08-30T11:26:03.062Z,979
2017-08-30T11:27:03.306Z,978.9
2017-08-30T11:28:03.329Z,979
2017-08-30T11:29:03.170Z,979
2017-08-30T11:30:02.845Z,979
2017-08-30T11:31:03.260Z,979
2017-08-30T11:32:03.294Z,978.9
2017-08-30T11:33:02.949Z,978.9
2017-08-30T11:34:02.980Z,979
2017-08-30T11:35:03.392Z,979
2017-08-30T11:36:03.049Z,978.9
2017-08-30T11:37:03.292Z,979
2017-08-30T11:38:03.139Z,979
2017-08-30T11:39:02.928Z,978.9
2017-08-30T11:40:02.973Z,978.9
2017-08-30T11:41:03.207Z,978.9
2017-08-30T11:42:03.235Z,978.9
2017-08-30T11:43:03.096Z,978.9
2017-08-30T11:44:02.964Z,978.9
2017-08-30T11:45:02.620Z,978.9
2017-08-30T11:46:02.479Z,978.9
2017-08-30T11:47:02.894Z,978.9
2017-08-30T11:48:02.366Z,978.9
2017-08-30T11:49:02.213Z,978.8
2017-08-30T11:50:03.599Z,978.9
2017-08-30T11:51:02.506Z,978.9
2017-08-30T11:52:02.566Z,978.8
2017-08-30T11:53:02.595Z,978.9
2017-08-30T11:54:03.036Z,978.8
2017-08-30T11:55:02.889Z,978.8
2017-08-30T11:56:02.965Z,978.9
2017-08-30T11:57:03.024Z,978.9
2017-08-30T11:58:02.892Z,978.9
2017-08-30T11:59:02.758Z,978.9
2017-08-30T12:00:02.624Z,978.8
2017-08-30T12:01:03.488Z,978.8
2017-08-30T12:02:02.931Z,978.8
2017-08-30T12:03:02.791Z,978.7
2017-08-30T12:04:02.827Z,978.8
2017-08-30T12:05:02.701Z,978.7
2017-08-30T12:06:02.774Z,978.7
2017-08-30T12:07:02.802Z,978.7
2017-08-30T12:08:03.653Z,978.7
2017-08-30T12:09:03.491Z,978.7
2017-08-30T12:10:02.901Z,978.6
2017-08-30T12:11:02.947Z,978.7
2017-08-30T12:12:03.019Z,978.7
2017-08-30T12:13:03.050Z,978.7
2017-08-30T12:14:02.916Z,978.6
2017-08-30T12:15:02.766Z,978.7
2017-08-30T12:16:02.614Z,978.7
2017-08-30T12:17:03.834Z,978.7
2017-08-30T12:18:02.487Z,978.6
2017-08-30T12:19:03.154Z,978.7
2017-08-30T12:20:03.007Z,978.6
2017-08-30T12:21:03.039Z,978.6
2017-08-30T12:22:03.073Z,978.6
2017-08-30T12:23:02.932Z,978.6
2017-08-30T12:24:02.826Z,978.6
2017-08-30T12:25:02.679Z,978.6
2017-08-30T12:26:03.333Z,978.6
2017-08-30T12:27:03.774Z,978.6
2017-08-30T12:28:03.303Z,978.5
2017-08-30T12:29:03.548Z,978.5
2017-08-30T12:30:03.594Z,978.5
2017-08-30T12:31:02.471Z,978.5
2017-08-30T12:32:03.918Z,978.5
2017-08-30T12:33:03.338Z,978.5
2017-08-30T12:34:03.574Z,978.5
2017-08-30T12:35:03.423Z,978.5
2017-08-30T12:36:03.080Z,978.5
2017-08-30T12:37:03.117Z,978.4
2017-08-30T12:38:03.346Z,978.4
2017-08-30T12:39:03.294Z,978.4
2017-08-30T12:40:03.330Z,978.5
2017-08-30T12:41:03.177Z,978.4
2017-08-30T12:42:03.412Z,978.4
2017-08-30T12:43:03.277Z,978.5
2017-08-30T12:44:03.340Z,978.5
2017-08-30T12:45:02.805Z,978.4
2017-08-30T12:46:02.842Z,978.4
2017-08-30T12:47:03.085Z,978.3
2017-08-30T12:48:03.300Z,978.3
2017-08-30T12:49:03.152Z,978.3
2017-08-30T12:50:02.987Z,978.4
2017-08-30T12:51:02.861Z,978.4
2017-08-30T12:52:03.553Z,978.3
2017-08-30T12:53:03.457Z,978.4
2017-08-30T12:54:03.338Z,978.3
2017-08-30T12:55:03.580Z,978.3
2017-08-30T12:56:03.424Z,978.3
2017-08-30T12:57:03.252Z,978.3
2017-08-30T12:58:03.292Z,978.2
2017-08-30T12:59:03.135Z,978.2
2017-08-30T13:00:03.007Z,978.2
2017-08-30T13:01:03.766Z,978.3
2017-08-30T13:02:04.191Z,978.2
2017-08-30T13:03:03.846Z,978.2
2017-08-30T13:04:03.511Z,978.2
2017-08-30T13:05:03.929Z,978.2
2017-08-30T13:06:03.778Z,978.2
2017-08-30T13:07:03.629Z,978.2
2017-08-30T13:08:03.471Z,978.1
2017-08-30T13:09:03.499Z,978.1
2017-08-30T13:10:03.342Z,978.1
2017-08-30T13:11:03.400Z,978
2017-08-30T13:12:03.240Z,978
2017-08-30T13:13:03.080Z,978.1
2017-08-30T13:14:03.533Z,978
2017-08-30T13:15:03.598Z,977.9
2017-08-30T13:16:03.077Z,977.9
2017-08-30T13:17:03.987Z,977.9
2017-08-30T13:18:04.228Z,977.9
2017-08-30T13:19:03.475Z,977.9
2017-08-30T13:20:03.533Z,977.9
2017-08-30T13:21:03.731Z,977.9
2017-08-30T13:22:03.966Z,977.9
2017-08-30T13:23:04.186Z,977.9
2017-08-30T13:24:04.021Z,977.9
2017-08-30T13:25:04.071Z,977.9
2017-08-30T13:26:04.129Z,977.9
2017-08-30T13:27:04.209Z,977.8
2017-08-30T13:28:04.264Z,977.9
2017-08-30T13:29:03.730Z,977.8
2017-08-30T13:30:03.753Z,977.9
2017-08-30T13:31:03.406Z,977.8
2017-08-30T13:32:03.978Z,977.8
2017-08-30T13:33:04.008Z,977.8
2017-08-30T13:34:04.422Z,977.8
2017-08-30T13:35:03.451Z,977.8
2017-08-30T13:36:03.300Z,977.8
2017-08-30T13:37:03.346Z,977.7
2017-08-30T13:38:03.380Z,977.7
2017-08-30T13:39:03.592Z,977.7
2017-08-30T13:40:03.617Z,977.7
2017-08-30T13:41:03.638Z,977.7
2017-08-30T13:42:03.300Z,977.7
2017-08-30T13:43:03.686Z,977.7
2017-08-30T13:44:03.712Z,977.7
2017-08-30T13:45:03.926Z,977.6
2017-08-30T13:46:04.047Z,977.6
2017-08-30T13:47:03.291Z,977.6
2017-08-30T13:48:03.805Z,977.6
2017-08-30T13:49:03.117Z,977.6
2017-08-30T13:50:04.363Z,977.6
2017-08-30T13:51:03.865Z,977.6
2017-08-30T13:52:03.896Z,977.6
2017-08-30T13:53:04.521Z,977.6
2017-08-30T13:54:04.135Z,977.6
2017-08-30T13:55:04.372Z,977.6
2017-08-30T13:56:04.050Z,977.6
2017-08-30T13:57:04.015Z,977.6
2017-08-30T13:58:04.117Z,977.6
2017-08-30T13:59:03.291Z,977.5
2017-08-30T14:00:03.500Z,977.6
2017-08-30T14:01:03.200Z,977.6
2017-08-30T14:02:03.484Z,977.6
2017-08-30T14:03:02.774Z,977.6
2017-08-30T14:04:03.607Z,977.6
2017-08-30T14:05:02.793Z,977.6
2017-08-30T14:06:02.603Z,977.6
2017-08-30T14:07:02.841Z,977.7
2017-08-30T14:08:03.392Z,977.7
2017-08-30T14:09:03.803Z,977.7
2017-08-30T14:10:02.763Z,977.7
2017-08-30T14:11:02.868Z,977.7
2017-08-30T14:12:02.737Z,977.7
2017-08-30T14:13:02.588Z,977.8
2017-08-30T14:14:03.429Z,977.8
2017-08-30T14:15:03.467Z,977.8
2017-08-30T14:16:02.947Z,977.8
2017-08-30T14:17:02.599Z,977.8
2017-08-30T14:18:02.884Z,977.8
2017-08-30T14:19:02.980Z,977.8
2017-08-30T14:20:02.830Z,977.8
2017-08-30T14:21:03.175Z,977.8
2017-08-30T14:22:03.026Z,977.9
2017-08-30T14:23:02.878Z,977.9
2017-08-30T14:24:02.914Z,977.9
2017-08-30T14:25:03.160Z,977.8
2017-08-30T14:26:03.031Z,977.8
2017-08-30T14:27:02.896Z,977.8
2017-08-30T14:28:03.129Z,977.8
2017-08-30T14:29:03.181Z,977.8
2017-08-30T14:30:03.626Z,977.8
2017-08-30T14:31:03.219Z,977.8
2017-08-30T14:32:03.260Z,977.8
2017-08-30T14:33:03.319Z,977.8
2017-08-30T14:34:03.358Z,977.8
2017-08-30T14:35:02.581Z,977.8
2017-08-30T14:36:03.550Z,977.8
2017-08-30T14:37:03.218Z,977.8
2017-08-30T14:38:03.308Z,977.8
2017-08-30T14:39:03.190Z,977.8
2017-08-30T14:40:02.874Z,977.8
2017-08-30T14:41:03.238Z,977.8
2017-08-30T14:42:03.302Z,977.7
2017-08-30T14:43:03.883Z,977.8
2017-08-30T14:44:02.952Z,977.7
2017-08-30T14:45:02.810Z,977.8
2017-08-30T14:46:02.859Z,977.8
2017-08-30T14:47:02.521Z,977.8
2017-08-30T14:48:02.547Z,977.8
2017-08-30T14:49:02.431Z,977.7
2017-08-30T14:50:03.271Z,977.7
2017-08-30T14:51:03.143Z,977.7
2017-08-30T14:52:03.010Z,977.7
2017-08-30T14:53:03.591Z,977.8
2017-08-30T14:54:03.064Z,977.8
2017-08-30T14:55:03.497Z,977.8
2017-08-30T14:56:03.355Z,977.8
2017-08-30T14:57:03.206Z,977.8
2017-08-30T14:58:03.078Z,977.9
2017-08-30T14:59:02.952Z,978
2017-08-30T15:00:02.801Z,977.9
2017-08-30T15:01:03.158Z,978
2017-08-30T15:02:03.395Z,978
2017-08-30T15:03:03.660Z,978
2017-08-30T15:04:03.706Z,978
2017-08-30T15:05:03.338Z,978
2017-08-30T15:06:03.397Z,978
2017-08-30T15:07:03.035Z,978
2017-08-30T15:08:03.171Z,978
2017-08-30T15:09:03.588Z,978
2017-08-30T15:10:03.897Z,978
2017-08-30T15:11:02.962Z,978
2017-08-30T15:12:03.105Z,978
2017-08-30T15:13:03.153Z,978.1
2017-08-30T15:14:03.901Z,978
2017-08-30T15:15:03.161Z,978
2017-08-30T15:16:03.569Z,978
2017-08-30T15:17:03.500Z,978
2017-08-30T15:18:03.641Z,978.1
2017-08-30T15:19:02.968Z,978.1
2017-08-30T15:20:03.422Z,978.1
2017-08-30T15:21:03.558Z,978.1
2017-08-30T15:22:03.726Z,978.1
2017-08-30T15:23:03.883Z,978.1
2017-08-30T15:24:02.887Z,978.1
2017-08-30T15:25:04.183Z,978.1
2017-08-30T15:26:02.692Z,978.1
2017-08-30T15:27:03.364Z,978
2017-08-30T15:28:03.645Z,978.1
2017-08-30T15:29:03.128Z,978.1
2017-08-30T15:30:02.916Z,978.1
2017-08-30T15:31:02.786Z,978.1
2017-08-30T15:32:03.009Z,978.1
2017-08-30T15:33:03.045Z,978.1
2017-08-30T15:34:03.568Z,978.2
2017-08-30T15:35:02.726Z,978.2
2017-08-30T15:36:04.081Z,978.2
2017-08-30T15:37:03.234Z,978.1
2017-08-30T15:38:03.288Z,978.1
2017-08-30T15:39:03.718Z,978.2
2017-08-30T15:40:03.411Z,978.2
2017-08-30T15:41:03.644Z,978.1
2017-08-30T15:42:02.908Z,978.1
2017-08-30T15:43:02.763Z,978.2
2017-08-30T15:44:02.991Z,978.2
2017-08-30T15:45:03.411Z,978.1
2017-08-30T15:46:03.279Z,978.1
2017-08-30T15:47:03.620Z,978.1
2017-08-30T15:49:02.749Z,978.1
2017-08-30T15:50:02.981Z,978.1
2017-08-30T15:51:03.218Z,978.1
2017-08-30T15:52:03.285Z,978.2
2017-08-30T15:53:03.201Z,978.2
2017-08-30T15:54:03.473Z,978.2
2017-08-30T15:55:03.749Z,978.2
2017-08-30T15:56:04.048Z,978.2
2017-08-30T15:57:02.745Z,978.2
2017-08-30T15:58:03.410Z,978.2
2017-08-30T15:59:03.489Z,978.2
2017-08-30T16:00:03.571Z,978.2
2017-08-30T16:01:03.189Z,978.2
2017-08-30T16:02:03.265Z,978.2
2017-08-30T16:03:03.380Z,978.2
2017-08-30T16:04:04.184Z,978.2
2017-08-30T16:05:03.243Z,978.2
2017-08-30T16:06:03.352Z,978.2
2017-08-30T16:07:03.375Z,978.2
2017-08-30T16:08:03.154Z,978.2
2017-08-30T16:09:03.489Z,978.2
2017-08-30T16:10:03.300Z,978.3
2017-08-30T16:11:03.816Z,978.3
2017-08-30T16:12:07.696Z,978.3
2017-08-30T16:13:02.757Z,978.4
2017-08-30T16:14:03.032Z,978.4
2017-08-30T16:15:03.283Z,978.4
2017-08-30T16:16:03.621Z,978.5
2017-08-30T16:17:04.012Z,978.5
2017-08-30T16:18:03.055Z,978.5
2017-08-30T16:19:02.976Z,978.4
2017-08-30T16:20:03.846Z,978.4
2017-08-30T16:21:03.154Z,978.4
2017-08-30T16:22:03.132Z,978.4
2017-08-30T16:23:03.294Z,978.4
2017-08-30T16:24:03.224Z,978.4
2017-08-30T16:25:03.305Z,978.4
2017-08-30T16:26:03.403Z,978.3
2017-08-30T16:27:03.272Z,978.5
2017-08-30T16:28:03.336Z,978.4
2017-08-30T16:29:03.322Z,978.3
2017-08-30T16:30:03.506Z,978.2
2017-08-30T16:31:03.921Z,978.3
2017-08-30T16:32:02.956Z,978.2
2017-08-30T16:33:03.004Z,978.2
2017-08-30T16:34:03.067Z,978.1
2017-08-30T16:35:03.100Z,978.1
2017-08-30T16:36:03.059Z,978.1
2017-08-30T16:37:03.384Z,978
2017-08-30T16:38:03.258Z,978
2017-08-30T16:39:03.493Z,978
2017-08-30T16:40:03.359Z,977.9
2017-08-30T16:41:03.213Z,977.9
2017-08-30T16:42:03.930Z,977.9
2017-08-30T16:43:03.400Z,977.8
2017-08-30T16:44:03.958Z,977.9
2017-08-30T16:45:02.646Z,977.8
2017-08-30T16:46:03.337Z,977.8
2017-08-30T16:47:03.246Z,977.8
2017-08-30T16:48:03.092Z,977.8
2017-08-30T16:49:03.183Z,977.7
2017-08-30T16:50:03.501Z,977.8
2017-08-30T16:51:03.164Z,977.8
2017-08-30T16:52:03.412Z,977.8
2017-08-30T16:53:03.797Z,977.8
2017-08-30T16:54:03.033Z,977.8
2017-08-30T16:55:03.107Z,977.8
2017-08-30T16:56:03.349Z,977.8
2017-08-30T16:57:03.587Z,977.8
2017-08-30T16:58:04.081Z,977.8
2017-08-30T16:59:02.934Z,977.8
2017-08-30T17:00:03.210Z,977.7
2017-08-30T17:01:02.783Z,977.7
2017-08-30T17:02:02.644Z,977.7
2017-08-30T17:03:02.700Z,977.7
2017-08-30T17:04:03.084Z,977.7
2017-08-30T17:05:03.125Z,977.7
2017-08-30T17:06:02.982Z,977.7
2017-08-30T17:07:02.839Z,977.7
2017-08-30T17:08:02.906Z,977.6
2017-08-30T17:09:03.336Z,977.7
2017-08-30T17:10:03.000Z,977.7
2017-08-30T17:11:02.855Z,977.7
2017-08-30T17:12:02.895Z,977.8
2017-08-30T17:13:02.548Z,977.8
2017-08-30T17:14:02.803Z,977.8
2017-08-30T17:15:03.169Z,977.8
2017-08-30T17:16:02.867Z,977.8
2017-08-30T17:17:02.737Z,977.8
2017-08-30T17:18:03.184Z,977.8
2017-08-30T17:19:02.858Z,977.8
2017-08-30T17:20:03.106Z,977.8
2017-08-30T17:21:03.341Z,977.8
2017-08-30T17:22:02.192Z,977.8
2017-08-30T17:23:03.038Z,977.8
2017-08-30T17:24:03.120Z,977.8
2017-08-30T17:25:03.704Z,977.7
2017-08-30T17:26:02.928Z,977.8
2017-08-30T17:27:02.773Z,977.8
2017-08-30T17:28:02.635Z,977.8
2017-08-30T17:29:02.698Z,977.8
2017-08-30T17:30:03.044Z,977.8
2017-08-30T17:31:03.101Z,977.9
2017-08-30T17:32:02.950Z,977.9
2017-08-30T17:33:02.792Z,977.9
2017-08-30T17:34:02.859Z,977.9
2017-08-30T17:35:03.090Z,978
2017-08-30T17:36:03.846Z,978
2017-08-30T17:37:02.891Z,977.9
2017-08-30T17:38:03.129Z,978
2017-08-30T17:39:03.181Z,978
2017-08-30T17:40:03.413Z,978
2017-08-30T17:41:02.857Z,977.9
2017-08-30T17:42:03.483Z,977.9
2017-08-30T17:43:02.732Z,978
2017-08-30T17:44:02.792Z,978
2017-08-30T17:45:02.605Z,978.1
2017-08-30T17:46:02.977Z,978.2
2017-08-30T17:47:03.128Z,978.2
2017-08-30T17:48:03.237Z,978.2
2017-08-30T17:49:03.198Z,978.3
2017-08-30T17:50:03.205Z,978.3
2017-08-30T17:51:03.094Z,978.3
2017-08-30T17:52:03.677Z,978.3
2017-08-30T17:53:02.635Z,978.3
2017-08-30T17:54:02.332Z,978.3
2017-08-30T17:55:02.628Z,978.3
2017-08-30T17:56:02.307Z,978.3
2017-08-30T17:57:02.838Z,978.4
2017-08-30T17:58:03.129Z,978.4
2017-08-30T17:59:03.310Z,978.4
2017-08-30T18:00:03.016Z,978.4
2017-08-30T18:01:03.188Z,978.4
2017-08-30T18:02:03.390Z,978.4
2017-08-30T18:03:03.019Z,978.3
2017-08-30T18:04:03.330Z,978.3
2017-08-30T18:05:02.841Z,978.4
2017-08-30T18:06:02.754Z,978.4
2017-08-30T18:07:02.637Z,978.3
2017-08-30T18:08:03.143Z,978.3
